sensor_id;sensor_type;location;lat;lon;timestamp;temperature;humidity
15450;DHT22;7826;49.784;9.934;2024-01-07T00:02:22;-1.10;1.00
15450;DHT22;7826;49.784;9.934;2024-01-07T00:04:48;-1.20;1.00
15450;DHT22;7826;49.784;9.934;2024-01-07T00:07:14;-1.20;1.00
15450;DHT22;7826;49.784;9.934;2024-01-07T00:09:40;-1.10;1.00
15450;DHT22;7826;49.784;9.934;2024-01-07T00:12:06;-1.20;1.00
15450;DHT22;7826;49.784;9.934;2024-01-07T00:14:32;-1.10;1.00
15450;DHT22;7826;49.784;9.934;2024-01-07T00:16:59;-1.10;1.00
15450;DHT22;7826;49.784;9.934;2024-01-07T00:19:25;-1.20;1.00
15450;DHT22;7826;49.784;9.934;2024-01-07T00:21:51;-1.20;1.00
15450;DHT22;7826;49.784;9.934;2024-01-07T00:24:17;-1.30;99.90
15450;DHT22;7826;49.784;9.934;2024-01-07T00:26:44;-1.20;1.00
15450;DHT22;7826;49.784;9.934;2024-01-07T00:29:10;-1.20;99.90
15450;DHT22;7826;49.784;9.934;2024-01-07T00:31:37;-1.20;1.00
15450;DHT22;7826;49.784;9.934;2024-01-07T00:34:03;-1.20;1.00
15450;DHT22;7826;49.784;9.934;2024-01-07T00:36:29;-1.20;1.00
15450;DHT22;7826;49.784;9.934;2024-01-07T00:38:56;-1.20;99.90
15450;DHT22;7826;49.784;9.934;2024-01-07T00:41:22;-1.20;1.00
15450;DHT22;7826;49.784;9.934;2024-01-07T00:43:48;-1.30;99.90
15450;DHT22;7826;49.784;9.934;2024-01-07T00:46:14;-1.30;1.00
15450;DHT22;7826;49.784;9.934;2024-01-07T00:48:40;-1.30;1.00
15450;DHT22;7826;49.784;9.934;2024-01-07T00:51:07;-1.10;1.00
15450;DHT22;7826;49.784;9.934;2024-01-07T00:53:33;-1.30;99.90
15450;DHT22;7826;49.784;9.934;2024-01-07T00:55:59;-1.20;1.00
15450;DHT22;7826;49.784;9.934;2024-01-07T00:58:26;-1.30;1.00
15450;DHT22;7826;49.784;9.934;2024-01-07T01:00:52;-1.30;1.00
15450;DHT22;7826;49.784;9.934;2024-01-07T01:03:20;-1.00;1.00
15450;DHT22;7826;49.784;9.934;2024-01-07T01:05:47;-1.30;1.00
15450;DHT22;7826;49.784;9.934;2024-01-07T01:08:14;-1.30;1.00
15450;DHT22;7826;49.784;9.934;2024-01-07T01:10:40;-1.30;1.00
15450;DHT22;7826;49.784;9.934;2024-01-07T01:13:06;-1.20;1.00
15450;DHT22;7826;49.784;9.934;2024-01-07T01:15:32;-1.30;1.00
15450;DHT22;7826;49.784;9.934;2024-01-07T01:17:58;-1.30;1.00
15450;DHT22;7826;49.784;9.934;2024-01-07T01:20:24;-1.40;1.00
15450;DHT22;7826;49.784;9.934;2024-01-07T01:22:50;-1.40;1.00
15450;DHT22;7826;49.784;9.934;2024-01-07T01:25:17;-1.40;1.00
15450;DHT22;7826;49.784;9.934;2024-01-07T01:27:44;-1.40;1.00
15450;DHT22;7826;49.784;9.934;2024-01-07T01:30:11;-1.50;1.00
15450;DHT22;7826;49.784;9.934;2024-01-07T01:32:38;-1.50;1.00
15450;DHT22;7826;49.784;9.934;2024-01-07T01:35:05;-1.30;1.00
15450;DHT22;7826;49.784;9.934;2024-01-07T01:37:32;-1.40;1.00
15450;DHT22;7826;49.784;9.934;2024-01-07T01:40:01;-1.40;1.00
15450;DHT22;7826;49.784;9.934;2024-01-07T01:42:27;-1.50;1.00
15450;DHT22;7826;49.784;9.934;2024-01-07T01:44:53;-1.50;99.90
15450;DHT22;7826;49.784;9.934;2024-01-07T01:47:23;-1.20;1.00
15450;DHT22;7826;49.784;9.934;2024-01-07T01:49:49;-1.50;1.00
15450;DHT22;7826;49.784;9.934;2024-01-07T01:52:15;-1.40;99.90
15450;DHT22;7826;49.784;9.934;2024-01-07T01:54:41;-1.60;99.90
15450;DHT22;7826;49.784;9.934;2024-01-07T01:57:15;-1.60;1.00
15450;DHT22;7826;49.784;9.934;2024-01-07T01:59:42;-1.60;99.90
15450;DHT22;7826;49.784;9.934;2024-01-07T02:02:09;-1.50;99.90
15450;DHT22;7826;49.784;9.934;2024-01-07T02:04:35;-1.70;99.90
15450;DHT22;7826;49.784;9.934;2024-01-07T02:07:01;-1.60;99.90
15450;DHT22;7826;49.784;9.934;2024-01-07T02:09:27;-1.60;99.90
15450;DHT22;7826;49.784;9.934;2024-01-07T02:12:03;-1.70;99.90
15450;DHT22;7826;49.784;9.934;2024-01-07T02:14:30;-1.50;99.90
15450;DHT22;7826;49.784;9.934;2024-01-07T02:16:56;-1.80;99.90
15450;DHT22;7826;49.784;9.934;2024-01-07T02:19:23;-1.40;99.90
15450;DHT22;7826;49.784;9.934;2024-01-07T02:21:52;-1.80;99.90
15450;DHT22;7826;49.784;9.934;2024-01-07T02:24:19;-1.90;99.90
15450;DHT22;7826;49.784;9.934;2024-01-07T02:26:45;-1.70;99.90
15450;DHT22;7826;49.784;9.934;2024-01-07T02:29:11;-1.80;99.90
15450;DHT22;7826;49.784;9.934;2024-01-07T02:31:37;-1.90;99.90
15450;DHT22;7826;49.784;9.934;2024-01-07T02:34:03;-1.90;99.90
15450;DHT22;7826;49.784;9.934;2024-01-07T02:36:30;-1.90;99.90
15450;DHT22;7826;49.784;9.934;2024-01-07T02:38:56;-2.00;99.90
15450;DHT22;7826;49.784;9.934;2024-01-07T02:41:22;-2.00;99.90
15450;DHT22;7826;49.784;9.934;2024-01-07T02:43:51;-2.00;99.90
15450;DHT22;7826;49.784;9.934;2024-01-07T02:46:18;-2.00;99.90
15450;DHT22;7826;49.784;9.934;2024-01-07T02:48:44;-2.00;99.90
15450;DHT22;7826;49.784;9.934;2024-01-07T02:51:11;-1.90;99.90
15450;DHT22;7826;49.784;9.934;2024-01-07T02:53:38;-2.00;99.90
15450;DHT22;7826;49.784;9.934;2024-01-07T02:56:04;-2.00;99.90
15450;DHT22;7826;49.784;9.934;2024-01-07T02:58:31;-2.10;99.90
15450;DHT22;7826;49.784;9.934;2024-01-07T03:00:58;-2.00;99.90
15450;DHT22;7826;49.784;9.934;2024-01-07T03:03:24;-2.00;99.90
15450;DHT22;7826;49.784;9.934;2024-01-07T03:05:52;-2.10;99.90
15450;DHT22;7826;49.784;9.934;2024-01-07T03:08:20;-2.00;99.90
15450;DHT22;7826;49.784;9.934;2024-01-07T03:10:46;-2.10;99.90
15450;DHT22;7826;49.784;9.934;2024-01-07T03:13:12;-2.10;99.90
15450;DHT22;7826;49.784;9.934;2024-01-07T03:15:38;-2.10;92.30
15450;DHT22;7826;49.784;9.934;2024-01-07T03:18:04;-2.10;99.90
15450;DHT22;7826;49.784;9.934;2024-01-07T03:20:31;-2.10;99.90
15450;DHT22;7826;49.784;9.934;2024-01-07T03:22:59;-2.00;99.90
15450;DHT22;7826;49.784;9.934;2024-01-07T03:25:25;-2.10;99.90
15450;DHT22;7826;49.784;9.934;2024-01-07T03:27:52;-2.20;99.90
15450;DHT22;7826;49.784;9.934;2024-01-07T03:30:18;-2.00;99.90
15450;DHT22;7826;49.784;9.934;2024-01-07T03:32:44;-2.00;99.90
15450;DHT22;7826;49.784;9.934;2024-01-07T03:35:11;-2.10;99.90
15450;DHT22;7826;49.784;9.934;2024-01-07T03:37:37;-2.20;99.90
15450;DHT22;7826;49.784;9.934;2024-01-07T03:40:08;-2.30;99.90
15450;DHT22;7826;49.784;9.934;2024-01-07T03:42:35;-2.40;99.90
15450;DHT22;7826;49.784;9.934;2024-01-07T03:45:01;-2.40;25.30
15450;DHT22;7826;49.784;9.934;2024-01-07T03:47:27;-2.50;1.00
15450;DHT22;7826;49.784;9.934;2024-01-07T03:49:53;-2.50;40.70
15450;DHT22;7826;49.784;9.934;2024-01-07T03:52:19;-2.50;24.50
15450;DHT22;7826;49.784;9.934;2024-01-07T03:54:45;-2.50;99.90
15450;DHT22;7826;49.784;9.934;2024-01-07T03:57:11;-2.50;99.90
15450;DHT22;7826;49.784;9.934;2024-01-07T03:59:38;-2.50;17.90
15450;DHT22;7826;49.784;9.934;2024-01-07T04:02:04;-2.50;99.90
15450;DHT22;7826;49.784;9.934;2024-01-07T04:04:30;-2.60;10.00
15450;DHT22;7826;49.784;9.934;2024-01-07T04:06:56;-1.90;99.90
15450;DHT22;7826;49.784;9.934;2024-01-07T04:09:22;-2.60;99.90
15450;DHT22;7826;49.784;9.934;2024-01-07T04:11:50;-2.60;99.90
15450;DHT22;7826;49.784;9.934;2024-01-07T04:14:16;-2.70;99.90
15450;DHT22;7826;49.784;9.934;2024-01-07T04:16:42;-2.70;99.90
15450;DHT22;7826;49.784;9.934;2024-01-07T04:19:08;-2.70;99.90
15450;DHT22;7826;49.784;9.934;2024-01-07T04:21:34;-2.70;99.90
15450;DHT22;7826;49.784;9.934;2024-01-07T04:24:01;-2.20;99.90
15450;DHT22;7826;49.784;9.934;2024-01-07T04:26:28;-2.70;99.90
15450;DHT22;7826;49.784;9.934;2024-01-07T04:28:54;-2.80;99.90
15450;DHT22;7826;49.784;9.934;2024-01-07T04:31:20;-2.80;99.90
15450;DHT22;7826;49.784;9.934;2024-01-07T04:33:46;-2.80;99.90
15450;DHT22;7826;49.784;9.934;2024-01-07T04:36:12;-2.20;99.90
15450;DHT22;7826;49.784;9.934;2024-01-07T04:38:38;-2.90;99.90
15450;DHT22;7826;49.784;9.934;2024-01-07T04:41:05;-2.40;89.20
15450;DHT22;7826;49.784;9.934;2024-01-07T04:43:34;-2.90;99.90
15450;DHT22;7826;49.784;9.934;2024-01-07T04:46:01;-2.90;15.80
15450;DHT22;7826;49.784;9.934;2024-01-07T04:48:27;-3.00;1.00
15450;DHT22;7826;49.784;9.934;2024-01-07T04:50:53;-2.80;99.90
15450;DHT22;7826;49.784;9.934;2024-01-07T04:53:20;-2.90;99.90
15450;DHT22;7826;49.784;9.934;2024-01-07T04:55:47;-2.30;65.60
15450;DHT22;7826;49.784;9.934;2024-01-07T04:58:13;-3.00;99.90
15450;DHT22;7826;49.784;9.934;2024-01-07T05:00:39;-3.10;69.20
15450;DHT22;7826;49.784;9.934;2024-01-07T05:03:05;-3.00;99.90
15450;DHT22;7826;49.784;9.934;2024-01-07T05:05:31;-3.10;1.00
15450;DHT22;7826;49.784;9.934;2024-01-07T05:07:57;-2.60;99.90
15450;DHT22;7826;49.784;9.934;2024-01-07T05:10:26;-3.00;99.90
15450;DHT22;7826;49.784;9.934;2024-01-07T05:12:52;-3.10;99.90
15450;DHT22;7826;49.784;9.934;2024-01-07T05:15:18;-2.90;58.50
15450;DHT22;7826;49.784;9.934;2024-01-07T05:17:44;-3.10;99.90
15450;DHT22;7826;49.784;9.934;2024-01-07T05:20:11;-3.20;99.90
15450;DHT22;7826;49.784;9.934;2024-01-07T05:22:37;-3.20;99.90
15450;DHT22;7826;49.784;9.934;2024-01-07T05:25:03;-3.00;50.90
15450;DHT22;7826;49.784;9.934;2024-01-07T05:27:30;-3.20;99.90
15450;DHT22;7826;49.784;9.934;2024-01-07T05:29:56;-3.20;99.90
15450;DHT22;7826;49.784;9.934;2024-01-07T05:32:23;-3.20;99.90
15450;DHT22;7826;49.784;9.934;2024-01-07T05:34:49;-3.10;99.90
15450;DHT22;7826;49.784;9.934;2024-01-07T05:37:16;-3.20;99.90
15450;DHT22;7826;49.784;9.934;2024-01-07T05:39:42;-3.10;99.90
15450;DHT22;7826;49.784;9.934;2024-01-07T05:42:08;-3.20;99.90
15450;DHT22;7826;49.784;9.934;2024-01-07T05:44:34;-2.60;99.90
15450;DHT22;7826;49.784;9.934;2024-01-07T05:47:00;-3.20;99.90
15450;DHT22;7826;49.784;9.934;2024-01-07T05:49:27;-2.90;99.90
15450;DHT22;7826;49.784;9.934;2024-01-07T05:51:53;-3.20;99.90
15450;DHT22;7826;49.784;9.934;2024-01-07T05:54:20;-3.10;1.00
15450;DHT22;7826;49.784;9.934;2024-01-07T05:56:47;-3.20;92.80
15450;DHT22;7826;49.784;9.934;2024-01-07T05:59:14;-3.20;99.90
15450;DHT22;7826;49.784;9.934;2024-01-07T06:01:40;-3.10;57.80
15450;DHT22;7826;49.784;9.934;2024-01-07T06:04:06;-3.30;99.90
15450;DHT22;7826;49.784;9.934;2024-01-07T06:06:32;-3.30;99.90
15450;DHT22;7826;49.784;9.934;2024-01-07T06:08:59;-3.10;4.60
15450;DHT22;7826;49.784;9.934;2024-01-07T06:11:26;-3.30;59.10
15450;DHT22;7826;49.784;9.934;2024-01-07T06:13:52;-3.20;99.90
15450;DHT22;7826;49.784;9.934;2024-01-07T06:16:18;-3.40;99.90
15450;DHT22;7826;49.784;9.934;2024-01-07T06:18:45;-3.40;99.90
15450;DHT22;7826;49.784;9.934;2024-01-07T06:21:11;-2.80;99.90
15450;DHT22;7826;49.784;9.934;2024-01-07T06:23:37;-3.30;99.90
15450;DHT22;7826;49.784;9.934;2024-01-07T06:26:04;-3.40;99.90
15450;DHT22;7826;49.784;9.934;2024-01-07T06:28:31;-3.30;99.90
15450;DHT22;7826;49.784;9.934;2024-01-07T06:30:57;-3.30;99.90
15450;DHT22;7826;49.784;9.934;2024-01-07T06:33:24;-3.10;1.00
15450;DHT22;7826;49.784;9.934;2024-01-07T06:35:50;-3.30;94.00
15450;DHT22;7826;49.784;9.934;2024-01-07T06:38:16;-3.20;7.90
15450;DHT22;7826;49.784;9.934;2024-01-07T06:40:42;-3.20;15.80
15450;DHT22;7826;49.784;9.934;2024-01-07T06:43:08;-3.20;1.00
15450;DHT22;7826;49.784;9.934;2024-01-07T06:45:35;-3.20;99.90
15450;DHT22;7826;49.784;9.934;2024-01-07T06:48:01;-3.10;99.90
15450;DHT22;7826;49.784;9.934;2024-01-07T06:50:28;-3.10;99.90
15450;DHT22;7826;49.784;9.934;2024-01-07T06:52:55;-3.10;99.90
15450;DHT22;7826;49.784;9.934;2024-01-07T06:55:22;-2.80;99.90
15450;DHT22;7826;49.784;9.934;2024-01-07T06:57:48;-3.00;99.90
15450;DHT22;7826;49.784;9.934;2024-01-07T07:00:14;-3.00;38.00
15450;DHT22;7826;49.784;9.934;2024-01-07T07:02:42;-3.00;99.90
15450;DHT22;7826;49.784;9.934;2024-01-07T07:05:08;-3.00;99.90
15450;DHT22;7826;49.784;9.934;2024-01-07T07:07:35;-2.90;99.90
15450;DHT22;7826;49.784;9.934;2024-01-07T07:10:01;-2.90;99.90
15450;DHT22;7826;49.784;9.934;2024-01-07T07:12:27;-2.90;99.90
15450;DHT22;7826;49.784;9.934;2024-01-07T07:14:55;-2.90;99.90
15450;DHT22;7826;49.784;9.934;2024-01-07T07:17:21;-2.80;99.90
15450;DHT22;7826;49.784;9.934;2024-01-07T07:19:47;-2.70;99.90
15450;DHT22;7826;49.784;9.934;2024-01-07T07:22:13;-2.80;99.90
15450;DHT22;7826;49.784;9.934;2024-01-07T07:24:41;-2.80;49.70
15450;DHT22;7826;49.784;9.934;2024-01-07T07:27:08;-2.80;99.90
15450;DHT22;7826;49.784;9.934;2024-01-07T07:29:34;-2.80;1.00
15450;DHT22;7826;49.784;9.934;2024-01-07T07:32:00;-2.80;53.60
15450;DHT22;7826;49.784;9.934;2024-01-07T07:34:26;-2.80;1.00
15450;DHT22;7826;49.784;9.934;2024-01-07T07:36:52;-2.80;99.90
15450;DHT22;7826;49.784;9.934;2024-01-07T07:39:19;-2.90;1.00
15450;DHT22;7826;49.784;9.934;2024-01-07T07:41:45;-2.80;99.90
15450;DHT22;7826;49.784;9.934;2024-01-07T07:44:12;-2.80;99.90
15450;DHT22;7826;49.784;9.934;2024-01-07T07:46:38;-2.70;99.90
15450;DHT22;7826;49.784;9.934;2024-01-07T07:49:04;-2.70;99.90
15450;DHT22;7826;49.784;9.934;2024-01-07T07:51:31;-2.70;99.90
15450;DHT22;7826;49.784;9.934;2024-01-07T07:53:57;-2.70;99.90
15450;DHT22;7826;49.784;9.934;2024-01-07T07:56:23;-2.70;1.00
15450;DHT22;7826;49.784;9.934;2024-01-07T07:58:49;-2.70;1.00
15450;DHT22;7826;49.784;9.934;2024-01-07T08:01:16;-2.80;99.90
15450;DHT22;7826;49.784;9.934;2024-01-07T08:03:42;-2.70;1.00
15450;DHT22;7826;49.784;9.934;2024-01-07T08:06:09;-2.70;1.00
15450;DHT22;7826;49.784;9.934;2024-01-07T08:08:35;-2.70;81.60
15450;DHT22;7826;49.784;9.934;2024-01-07T08:11:01;-2.70;1.00
15450;DHT22;7826;49.784;9.934;2024-01-07T08:13:27;-2.60;99.90
15450;DHT22;7826;49.784;9.934;2024-01-07T08:15:53;-2.70;1.00
15450;DHT22;7826;49.784;9.934;2024-01-07T08:18:19;-2.70;99.90
15450;DHT22;7826;49.784;9.934;2024-01-07T08:20:45;-2.50;1.00
15450;DHT22;7826;49.784;9.934;2024-01-07T08:23:11;-2.60;99.90
15450;DHT22;7826;49.784;9.934;2024-01-07T08:25:38;-2.50;99.90
15450;DHT22;7826;49.784;9.934;2024-01-07T08:28:04;-2.60;89.20
15450;DHT22;7826;49.784;9.934;2024-01-07T08:30:30;-2.50;99.90
15450;DHT22;7826;49.784;9.934;2024-01-07T08:32:56;-2.60;99.90
15450;DHT22;7826;49.784;9.934;2024-01-07T08:35:22;-2.60;18.40
15450;DHT22;7826;49.784;9.934;2024-01-07T08:37:48;-2.50;99.90
15450;DHT22;7826;49.784;9.934;2024-01-07T08:40:15;-2.50;99.90
15450;DHT22;7826;49.784;9.934;2024-01-07T08:42:42;-2.50;99.90
15450;DHT22;7826;49.784;9.934;2024-01-07T08:45:09;-2.40;99.90
15450;DHT22;7826;49.784;9.934;2024-01-07T08:47:35;-2.40;99.90
15450;DHT22;7826;49.784;9.934;2024-01-07T08:50:02;-2.30;99.90
15450;DHT22;7826;49.784;9.934;2024-01-07T08:52:29;-2.40;99.90
15450;DHT22;7826;49.784;9.934;2024-01-07T08:54:55;-2.40;1.00
15450;DHT22;7826;49.784;9.934;2024-01-07T08:57:21;-2.30;99.90
15450;DHT22;7826;49.784;9.934;2024-01-07T08:59:47;-2.30;99.90
15450;DHT22;7826;49.784;9.934;2024-01-07T09:02:13;-2.30;99.90
15450;DHT22;7826;49.784;9.934;2024-01-07T09:04:39;-2.30;99.90
15450;DHT22;7826;49.784;9.934;2024-01-07T09:07:06;-2.20;99.90
15450;DHT22;7826;49.784;9.934;2024-01-07T09:09:32;-2.30;99.90
15450;DHT22;7826;49.784;9.934;2024-01-07T09:11:59;-2.20;99.90
15450;DHT22;7826;49.784;9.934;2024-01-07T09:14:26;-2.20;99.90
15450;DHT22;7826;49.784;9.934;2024-01-07T09:16:52;-2.20;99.90
15450;DHT22;7826;49.784;9.934;2024-01-07T09:19:19;-2.10;99.90
15450;DHT22;7826;49.784;9.934;2024-01-07T09:21:45;-2.10;99.90
15450;DHT22;7826;49.784;9.934;2024-01-07T09:24:11;-2.10;99.90
15450;DHT22;7826;49.784;9.934;2024-01-07T09:26:37;-2.10;99.90
15450;DHT22;7826;49.784;9.934;2024-01-07T09:29:03;-2.10;86.10
15450;DHT22;7826;49.784;9.934;2024-01-07T09:31:30;-2.10;99.90
15450;DHT22;7826;49.784;9.934;2024-01-07T09:33:56;-2.00;99.90
15450;DHT22;7826;49.784;9.934;2024-01-07T09:36:22;-2.00;99.90
15450;DHT22;7826;49.784;9.934;2024-01-07T09:38:48;-2.00;99.90
15450;DHT22;7826;49.784;9.934;2024-01-07T09:41:14;-2.00;99.90
15450;DHT22;7826;49.784;9.934;2024-01-07T09:43:40;-1.90;99.90
15450;DHT22;7826;49.784;9.934;2024-01-07T09:46:07;-1.90;99.90
15450;DHT22;7826;49.784;9.934;2024-01-07T09:48:33;-1.90;99.90
15450;DHT22;7826;49.784;9.934;2024-01-07T09:51:01;-1.80;99.90
15450;DHT22;7826;49.784;9.934;2024-01-07T09:53:30;-1.90;99.90
15450;DHT22;7826;49.784;9.934;2024-01-07T09:56:21;-1.80;99.90
15450;DHT22;7826;49.784;9.934;2024-01-07T09:58:49;-1.80;99.90
15450;DHT22;7826;49.784;9.934;2024-01-07T10:01:18;-1.80;99.90
15450;DHT22;7826;49.784;9.934;2024-01-07T10:03:45;-1.80;99.90
15450;DHT22;7826;49.784;9.934;2024-01-07T10:06:12;-1.70;99.90
15450;DHT22;7826;49.784;9.934;2024-01-07T10:08:39;-1.80;99.90
15450;DHT22;7826;49.784;9.934;2024-01-07T10:11:05;-1.70;99.90
15450;DHT22;7826;49.784;9.934;2024-01-07T10:13:31;-1.80;99.90
15450;DHT22;7826;49.784;9.934;2024-01-07T10:15:58;-1.80;99.90
15450;DHT22;7826;49.784;9.934;2024-01-07T10:18:25;-1.70;99.90
15450;DHT22;7826;49.784;9.934;2024-01-07T10:20:52;-1.70;99.90
15450;DHT22;7826;49.784;9.934;2024-01-07T10:23:21;-1.70;99.90
15450;DHT22;7826;49.784;9.934;2024-01-07T10:25:47;-1.70;99.90
15450;DHT22;7826;49.784;9.934;2024-01-07T10:28:14;-1.70;99.90
15450;DHT22;7826;49.784;9.934;2024-01-07T10:30:40;-1.60;99.90
15450;DHT22;7826;49.784;9.934;2024-01-07T10:33:07;-1.60;99.90
15450;DHT22;7826;49.784;9.934;2024-01-07T10:35:35;-1.60;99.90
15450;DHT22;7826;49.784;9.934;2024-01-07T10:38:02;-1.60;99.90
15450;DHT22;7826;49.784;9.934;2024-01-07T10:40:31;-1.60;99.90
15450;DHT22;7826;49.784;9.934;2024-01-07T10:42:58;-1.60;99.90
15450;DHT22;7826;49.784;9.934;2024-01-07T10:45:24;-1.60;1.00
15450;DHT22;7826;49.784;9.934;2024-01-07T10:47:55;-1.50;99.90
15450;DHT22;7826;49.784;9.934;2024-01-07T10:50:24;-1.50;99.90
15450;DHT22;7826;49.784;9.934;2024-01-07T10:52:58;-1.50;1.00
15450;DHT22;7826;49.784;9.934;2024-01-07T10:55:33;-1.40;1.00
15450;DHT22;7826;49.784;9.934;2024-01-07T10:58:00;-1.40;1.00
15450;DHT22;7826;49.784;9.934;2024-01-07T11:00:27;-1.50;99.90
15450;DHT22;7826;49.784;9.934;2024-01-07T11:03:10;-1.50;1.00
15450;DHT22;7826;49.784;9.934;2024-01-07T11:05:52;-1.40;1.00
15450;DHT22;7826;49.784;9.934;2024-01-07T11:08:39;-1.40;1.00
15450;DHT22;7826;49.784;9.934;2024-01-07T11:11:23;-1.40;1.00
15450;DHT22;7826;49.784;9.934;2024-01-07T11:13:51;-1.30;1.00
15450;DHT22;7826;49.784;9.934;2024-01-07T11:16:42;-1.40;1.00
15450;DHT22;7826;49.784;9.934;2024-01-07T11:19:15;-1.30;1.00
15450;DHT22;7826;49.784;9.934;2024-01-07T11:21:41;-1.30;1.00
15450;DHT22;7826;49.784;9.934;2024-01-07T11:24:07;-1.30;99.90
15450;DHT22;7826;49.784;9.934;2024-01-07T11:26:34;-1.20;1.00
15450;DHT22;7826;49.784;9.934;2024-01-07T11:29:00;-1.30;1.00
15450;DHT22;7826;49.784;9.934;2024-01-07T11:31:53;-1.30;1.00
15450;DHT22;7826;49.784;9.934;2024-01-07T11:34:42;-1.30;1.00
15450;DHT22;7826;49.784;9.934;2024-01-07T11:37:17;-1.30;99.90
15450;DHT22;7826;49.784;9.934;2024-01-07T11:39:48;-1.30;1.00
15450;DHT22;7826;49.784;9.934;2024-01-07T11:42:14;-1.20;1.00
15450;DHT22;7826;49.784;9.934;2024-01-07T11:44:48;-1.20;1.00
15450;DHT22;7826;49.784;9.934;2024-01-07T11:47:16;-1.20;1.00
15450;DHT22;7826;49.784;9.934;2024-01-07T11:49:42;-1.20;1.00
15450;DHT22;7826;49.784;9.934;2024-01-07T11:52:08;-1.10;1.00
15450;DHT22;7826;49.784;9.934;2024-01-07T11:54:39;-1.10;1.00
15450;DHT22;7826;49.784;9.934;2024-01-07T11:57:06;-1.10;1.00
15450;DHT22;7826;49.784;9.934;2024-01-07T11:59:36;-1.10;1.00
15450;DHT22;7826;49.784;9.934;2024-01-07T12:02:03;-1.10;1.00
15450;DHT22;7826;49.784;9.934;2024-01-07T12:04:33;-1.10;1.00
15450;DHT22;7826;49.784;9.934;2024-01-07T12:07:01;-1.10;1.00
15450;DHT22;7826;49.784;9.934;2024-01-07T12:09:29;-1.10;1.00
15450;DHT22;7826;49.784;9.934;2024-01-07T12:11:56;-1.00;1.00
15450;DHT22;7826;49.784;9.934;2024-01-07T12:14:22;-1.00;1.00
15450;DHT22;7826;49.784;9.934;2024-01-07T12:16:49;-1.00;1.00
15450;DHT22;7826;49.784;9.934;2024-01-07T12:19:15;-0.90;1.00
15450;DHT22;7826;49.784;9.934;2024-01-07T12:21:42;-1.00;1.00
15450;DHT22;7826;49.784;9.934;2024-01-07T12:24:08;-1.00;1.00
15450;DHT22;7826;49.784;9.934;2024-01-07T12:26:34;-1.00;1.00
15450;DHT22;7826;49.784;9.934;2024-01-07T12:29:00;-1.00;1.00
15450;DHT22;7826;49.784;9.934;2024-01-07T12:31:33;-0.90;1.00
15450;DHT22;7826;49.784;9.934;2024-01-07T12:34:01;-0.90;1.00
15450;DHT22;7826;49.784;9.934;2024-01-07T12:36:29;-0.90;1.00
15450;DHT22;7826;49.784;9.934;2024-01-07T12:38:56;-0.90;1.00
15450;DHT22;7826;49.784;9.934;2024-01-07T12:41:24;-0.90;1.00
15450;DHT22;7826;49.784;9.934;2024-01-07T12:43:50;-0.90;1.00
15450;DHT22;7826;49.784;9.934;2024-01-07T12:46:17;-0.90;1.00
15450;DHT22;7826;49.784;9.934;2024-01-07T12:48:43;-0.90;1.00
15450;DHT22;7826;49.784;9.934;2024-01-07T12:51:09;-0.90;1.00
15450;DHT22;7826;49.784;9.934;2024-01-07T12:53:36;-0.90;1.00
15450;DHT22;7826;49.784;9.934;2024-01-07T12:56:02;-0.90;1.00
15450;DHT22;7826;49.784;9.934;2024-01-07T12:58:29;-0.80;1.00
15450;DHT22;7826;49.784;9.934;2024-01-07T13:00:55;-0.80;1.00
15450;DHT22;7826;49.784;9.934;2024-01-07T13:03:21;-0.80;1.00
15450;DHT22;7826;49.784;9.934;2024-01-07T13:05:47;-0.80;1.00
15450;DHT22;7826;49.784;9.934;2024-01-07T13:08:17;-0.80;1.00
15450;DHT22;7826;49.784;9.934;2024-01-07T13:10:45;-0.80;1.00
15450;DHT22;7826;49.784;9.934;2024-01-07T13:13:12;-0.80;1.00
15450;DHT22;7826;49.784;9.934;2024-01-07T13:15:39;-0.80;1.00
15450;DHT22;7826;49.784;9.934;2024-01-07T13:18:07;-0.80;1.00
15450;DHT22;7826;49.784;9.934;2024-01-07T13:20:33;-0.80;1.00
15450;DHT22;7826;49.784;9.934;2024-01-07T13:23:01;-0.80;1.00
15450;DHT22;7826;49.784;9.934;2024-01-07T13:25:29;-0.80;1.00
15450;DHT22;7826;49.784;9.934;2024-01-07T13:27:55;-0.80;1.00
15450;DHT22;7826;49.784;9.934;2024-01-07T13:30:21;-0.80;1.00
15450;DHT22;7826;49.784;9.934;2024-01-07T13:32:47;-0.70;1.00
15450;DHT22;7826;49.784;9.934;2024-01-07T13:35:15;-0.70;1.00
15450;DHT22;7826;49.784;9.934;2024-01-07T13:37:42;-0.70;1.00
15450;DHT22;7826;49.784;9.934;2024-01-07T13:40:09;-0.70;1.00
15450;DHT22;7826;49.784;9.934;2024-01-07T13:42:37;-0.70;1.00
15450;DHT22;7826;49.784;9.934;2024-01-07T13:45:04;-0.70;1.00
15450;DHT22;7826;49.784;9.934;2024-01-07T13:47:30;-0.70;1.00
15450;DHT22;7826;49.784;9.934;2024-01-07T13:49:56;-0.70;1.00
15450;DHT22;7826;49.784;9.934;2024-01-07T13:52:23;-0.70;1.00
15450;DHT22;7826;49.784;9.934;2024-01-07T13:54:49;-0.60;1.00
15450;DHT22;7826;49.784;9.934;2024-01-07T13:57:15;-0.70;1.00
15450;DHT22;7826;49.784;9.934;2024-01-07T13:59:41;-0.60;1.00
15450;DHT22;7826;49.784;9.934;2024-01-07T14:02:08;-0.70;1.00
15450;DHT22;7826;49.784;9.934;2024-01-07T14:04:35;-0.70;1.00
15450;DHT22;7826;49.784;9.934;2024-01-07T14:07:01;-0.70;1.00
15450;DHT22;7826;49.784;9.934;2024-01-07T14:09:27;-0.70;1.00
15450;DHT22;7826;49.784;9.934;2024-01-07T14:11:58;-0.60;1.00
15450;DHT22;7826;49.784;9.934;2024-01-07T14:14:24;-0.70;1.00
15450;DHT22;7826;49.784;9.934;2024-01-07T14:16:50;-0.70;1.00
15450;DHT22;7826;49.784;9.934;2024-01-07T14:19:16;-0.60;1.00
15450;DHT22;7826;49.784;9.934;2024-01-07T14:21:42;-0.70;1.00
15450;DHT22;7826;49.784;9.934;2024-01-07T14:24:08;-0.60;1.00
15450;DHT22;7826;49.784;9.934;2024-01-07T14:26:34;-0.60;1.00
15450;DHT22;7826;49.784;9.934;2024-01-07T14:29:01;-0.60;1.00
15450;DHT22;7826;49.784;9.934;2024-01-07T14:31:27;-0.60;1.00
15450;DHT22;7826;49.784;9.934;2024-01-07T14:33:53;-0.60;1.00
15450;DHT22;7826;49.784;9.934;2024-01-07T14:36:19;-0.60;1.00
15450;DHT22;7826;49.784;9.934;2024-01-07T14:38:46;-0.60;1.00
15450;DHT22;7826;49.784;9.934;2024-01-07T14:41:15;-0.70;1.00
15450;DHT22;7826;49.784;9.934;2024-01-07T14:43:41;-0.70;1.00
15450;DHT22;7826;49.784;9.934;2024-01-07T14:46:08;-0.70;1.00
15450;DHT22;7826;49.784;9.934;2024-01-07T14:48:34;-0.70;1.00
15450;DHT22;7826;49.784;9.934;2024-01-07T14:51:04;-0.70;1.00
15450;DHT22;7826;49.784;9.934;2024-01-07T14:53:31;-0.70;1.00
15450;DHT22;7826;49.784;9.934;2024-01-07T14:55:57;-0.70;1.00
15450;DHT22;7826;49.784;9.934;2024-01-07T14:58:26;-0.70;1.00
15450;DHT22;7826;49.784;9.934;2024-01-07T15:00:52;-0.70;1.00
15450;DHT22;7826;49.784;9.934;2024-01-07T15:03:19;-0.70;1.00
15450;DHT22;7826;49.784;9.934;2024-01-07T15:05:47;-0.70;1.00
15450;DHT22;7826;49.784;9.934;2024-01-07T15:08:14;-0.70;1.00
15450;DHT22;7826;49.784;9.934;2024-01-07T15:10:40;-0.80;1.00
15450;DHT22;7826;49.784;9.934;2024-01-07T15:13:07;-0.80;1.00
15450;DHT22;7826;49.784;9.934;2024-01-07T15:15:33;-0.70;1.00
15450;DHT22;7826;49.784;9.934;2024-01-07T15:17:59;-0.80;1.00
15450;DHT22;7826;49.784;9.934;2024-01-07T15:20:27;-0.80;1.00
15450;DHT22;7826;49.784;9.934;2024-01-07T15:22:53;-0.80;1.00
15450;DHT22;7826;49.784;9.934;2024-01-07T15:25:20;-0.80;1.00
15450;DHT22;7826;49.784;9.934;2024-01-07T15:27:46;-0.80;1.00
15450;DHT22;7826;49.784;9.934;2024-01-07T15:30:12;-0.80;1.00
15450;DHT22;7826;49.784;9.934;2024-01-07T15:32:38;-0.80;1.00
15450;DHT22;7826;49.784;9.934;2024-01-07T15:35:05;-0.90;1.00
15450;DHT22;7826;49.784;9.934;2024-01-07T15:37:32;-0.90;1.00
15450;DHT22;7826;49.784;9.934;2024-01-07T15:39:58;-0.90;1.00
15450;DHT22;7826;49.784;9.934;2024-01-07T15:42:25;-0.90;1.00
15450;DHT22;7826;49.784;9.934;2024-01-07T15:44:52;-0.90;1.00
15450;DHT22;7826;49.784;9.934;2024-01-07T15:47:18;-0.90;1.00
15450;DHT22;7826;49.784;9.934;2024-01-07T15:49:45;-0.90;1.00
15450;DHT22;7826;49.784;9.934;2024-01-07T15:52:11;-0.80;1.00